createdAt,value
2023-04-18T00:00:41.087Z,6.87
2023-04-18T00:01:41.058Z,6.89
2023-04-18T00:02:41.106Z,6.9
2023-04-18T00:03:41.255Z,6.88
2023-04-18T00:04:41.094Z,6.92
2023-04-18T00:05:41.085Z,6.9
2023-04-18T00:06:41.108Z,6.91
2023-04-18T00:07:41.045Z,6.89
2023-04-18T00:08:41.138Z,6.9
2023-04-18T00:09:41.098Z,6.89
2023-04-18T00:10:41.041Z,6.84
2023-04-18T00:11:41.051Z,6.83
2023-04-18T00:12:41.054Z,6.83
2023-04-18T00:13:41.051Z,6.83
2023-04-18T00:14:41.065Z,6.8
2023-04-18T00:15:41.050Z,6.83
2023-04-18T00:16:42.766Z,6.79
2023-04-18T00:17:46.110Z,6.78
2023-04-18T00:18:47.439Z,6.75
2023-04-18T00:19:41.073Z,6.74
2023-04-18T00:20:41.055Z,6.74
2023-04-18T00:21:41.043Z,6.7
2023-04-18T00:22:41.047Z,6.69
2023-04-18T00:23:41.049Z,6.67
2023-04-18T00:24:41.060Z,6.67
2023-04-18T00:25:41.071Z,6.65
2023-04-18T00:26:41.050Z,6.64
2023-04-18T00:27:41.044Z,6.62
2023-04-18T00:28:41.042Z,6.61
2023-04-18T00:29:41.054Z,6.58
2023-04-18T00:30:41.100Z,6.53
2023-04-18T00:31:41.033Z,6.53
2023-04-18T00:32:41.090Z,6.52
2023-04-18T00:33:41.052Z,6.49
2023-04-18T00:34:41.048Z,6.5
2023-04-18T00:35:41.066Z,6.46
2023-04-18T00:36:41.044Z,6.46
2023-04-18T00:37:42.823Z,6.41
2023-04-18T00:38:46.170Z,6.38
2023-04-18T00:39:47.536Z,6.39
2023-04-18T00:40:41.068Z,6.36
2023-04-18T00:41:41.116Z,6.35
2023-04-18T00:42:41.041Z,6.33
2023-04-18T00:43:41.061Z,6.3
2023-04-18T00:44:41.064Z,6.29
2023-04-18T00:45:41.063Z,6.27
2023-04-18T00:46:41.164Z,6.24
2023-04-18T00:47:41.098Z,6.21
2023-04-18T00:48:41.037Z,6.15
2023-04-18T00:49:41.058Z,6.16
2023-04-18T00:50:41.046Z,6.15
2023-04-18T00:51:41.052Z,6.14
2023-04-18T00:52:41.065Z,6.13
2023-04-18T00:53:41.051Z,6.11
2023-04-18T00:54:41.071Z,6.11
2023-04-18T00:55:41.065Z,6.09
2023-04-18T00:56:41.069Z,6.1
2023-04-18T00:57:41.055Z,6.07
2023-04-18T00:58:42.907Z,6.08
2023-04-18T00:59:45.820Z,6.07
2023-04-18T01:00:47.618Z,6.04
2023-04-18T01:01:41.078Z,6.05
2023-04-18T01:02:41.291Z,6.06
2023-04-18T01:03:41.259Z,6.07
2023-04-18T01:04:41.093Z,6.08
2023-04-18T01:05:41.138Z,6.08
2023-04-18T01:06:41.061Z,6.09
2023-04-18T01:07:41.046Z,6.1
2023-04-18T01:08:41.049Z,6.11
2023-04-18T01:09:41.071Z,6.12
2023-04-18T01:10:41.046Z,6.15
2023-04-18T01:11:41.068Z,6.15
2023-04-18T01:12:41.110Z,6.16
2023-04-18T01:13:41.049Z,6.19
2023-04-18T01:14:41.061Z,6.2
2023-04-18T01:15:41.082Z,6.21
2023-04-18T01:16:41.048Z,6.23
2023-04-18T01:17:41.088Z,6.26
2023-04-18T01:18:41.041Z,6.27
2023-04-18T01:19:42.970Z,6.27
2023-04-18T01:20:46.375Z,6.31
2023-04-18T01:21:47.695Z,6.3
2023-04-18T01:22:41.044Z,6.28
2023-04-18T01:23:41.209Z,6.28
2023-04-18T01:24:41.068Z,6.27
2023-04-18T01:25:41.056Z,6.3
2023-04-18T01:26:41.045Z,6.32
2023-04-18T01:27:41.055Z,6.33
2023-04-18T01:28:41.052Z,6.31
2023-04-18T01:29:41.085Z,6.31
2023-04-18T01:30:41.043Z,6.28
2023-04-18T01:31:41.128Z,6.28
2023-04-18T01:32:41.073Z,6.29
2023-04-18T01:33:41.165Z,6.29
2023-04-18T01:34:41.065Z,6.27
2023-04-18T01:35:41.057Z,6.28
2023-04-18T01:36:41.049Z,6.29
2023-04-18T01:37:41.051Z,6.28
2023-04-18T01:38:41.073Z,6.31
2023-04-18T01:39:41.089Z,6.3
2023-04-18T01:40:42.991Z,6.31
2023-04-18T01:41:46.415Z,6.31
2023-04-18T01:42:47.845Z,6.32
2023-04-18T01:43:41.049Z,6.3
2023-04-18T01:44:41.052Z,6.3
2023-04-18T01:45:41.044Z,6.32
2023-04-18T01:46:41.160Z,6.31
2023-04-18T01:47:41.087Z,6.31
2023-04-18T01:48:41.061Z,6.31
2023-04-18T01:49:41.083Z,6.31
2023-04-18T01:50:41.052Z,6.31
2023-04-18T01:51:41.045Z,6.29
2023-04-18T01:52:41.045Z,6.24
2023-04-18T01:53:41.053Z,6.25
2023-04-18T01:54:41.062Z,6.24
2023-04-18T01:55:41.057Z,6.21
2023-04-18T01:56:41.055Z,6.21
2023-04-18T01:57:41.064Z,6.2
2023-04-18T01:58:41.048Z,6.21
2023-04-18T01:59:41.048Z,6.16
2023-04-18T02:00:41.083Z,6.18
2023-04-18T02:01:41.083Z,6.16
2023-04-18T02:02:43.615Z,6.14
2023-04-18T02:03:46.464Z,6.15
2023-04-18T02:05:41.046Z,6.1
2023-04-18T02:06:41.046Z,6.07
2023-04-18T02:07:41.058Z,6.07
2023-04-18T02:08:41.044Z,6.05
2023-04-18T02:09:41.044Z,6.05
2023-04-18T02:10:41.040Z,6.03
2023-04-18T02:11:41.046Z,6.01
2023-04-18T02:12:41.062Z,6.01
2023-04-18T02:13:41.057Z,6.03
2023-04-18T02:14:41.048Z,6.04
2023-04-18T02:15:41.048Z,6.03
2023-04-18T02:16:41.109Z,6.06
2023-04-18T02:17:41.077Z,6.08
2023-04-18T02:18:41.049Z,6.07
2023-04-18T02:19:41.050Z,6.07
2023-04-18T02:20:41.045Z,6.06
2023-04-18T02:21:41.047Z,6.07
2023-04-18T02:22:41.167Z,6.06
2023-04-18T02:23:43.510Z,6.05
2023-04-18T02:24:46.441Z,6.08
2023-04-18T02:26:41.047Z,6.11
2023-04-18T02:27:41.040Z,6.08
2023-04-18T02:28:41.046Z,6.11
2023-04-18T02:29:41.061Z,6.13
2023-04-18T02:30:41.044Z,6.14
2023-04-18T02:31:41.064Z,6.13
2023-04-18T02:32:41.104Z,6.15
2023-04-18T02:33:41.048Z,6.11
2023-04-18T02:34:41.069Z,6.12
2023-04-18T02:35:41.051Z,6.14
2023-04-18T02:36:41.052Z,6.15
2023-04-18T02:37:41.049Z,6.17
2023-04-18T02:38:41.049Z,6.17
2023-04-18T02:39:41.061Z,6.18
2023-04-18T02:40:41.059Z,6.16
2023-04-18T02:41:41.048Z,6.15
2023-04-18T02:42:41.049Z,6.13
2023-04-18T02:43:41.342Z,6.16
2023-04-18T02:44:43.466Z,6.18
2023-04-18T02:45:46.525Z,6.17
2023-04-18T02:47:54.238Z,6.16
2023-04-18T02:48:41.047Z,6.16
2023-04-18T02:49:41.063Z,6.16
2023-04-18T02:50:41.039Z,6.16
2023-04-18T02:51:41.056Z,6.17
2023-04-18T02:52:41.041Z,6.14
2023-04-18T02:53:41.061Z,6.15
2023-04-18T02:54:41.066Z,6.1
2023-04-18T02:55:41.054Z,6.13
2023-04-18T02:56:41.051Z,6.12
2023-04-18T02:57:41.045Z,6.13
2023-04-18T02:58:41.047Z,6.14
2023-04-18T02:59:41.063Z,6.13
2023-04-18T03:00:41.049Z,6.12
2023-04-18T03:01:41.109Z,6.09
2023-04-18T03:02:41.142Z,6.11
2023-04-18T03:03:41.050Z,6.11
2023-04-18T03:04:41.422Z,6.13
2023-04-18T03:05:43.515Z,6.11
2023-04-18T03:06:46.584Z,6.11
2023-04-18T03:08:41.045Z,6.14
2023-04-18T03:09:41.083Z,6.1
2023-04-18T03:10:41.056Z,6.11
2023-04-18T03:11:41.063Z,6.11
2023-04-18T03:12:41.165Z,6.11
2023-04-18T03:13:41.057Z,6.1
2023-04-18T03:14:41.088Z,6.11
2023-04-18T03:15:41.064Z,6.09
2023-04-18T03:16:41.049Z,6.09
2023-04-18T03:17:41.058Z,6.1
2023-04-18T03:18:41.042Z,6.1
2023-04-18T03:19:41.055Z,6.09
2023-04-18T03:20:41.061Z,6.11
2023-04-18T03:21:41.043Z,6.06
2023-04-18T03:22:41.047Z,6.1
2023-04-18T03:23:41.046Z,6.1
2023-04-18T03:24:41.080Z,6.14
2023-04-18T03:25:41.425Z,6.11
2023-04-18T03:26:43.702Z,6.12
2023-04-18T03:27:46.686Z,6.12
2023-04-18T03:29:41.079Z,6.13
2023-04-18T03:30:41.043Z,6.14
2023-04-18T03:31:41.059Z,6.17
2023-04-18T03:32:41.097Z,6.17
2023-04-18T03:33:41.210Z,6.12
2023-04-18T03:34:41.043Z,6.13
2023-04-18T03:35:41.056Z,6.13
2023-04-18T03:36:41.070Z,6.13
2023-04-18T03:37:41.044Z,6.15
2023-04-18T03:38:41.041Z,6.16
2023-04-18T03:39:41.062Z,6.17
2023-04-18T03:40:41.035Z,6.16
2023-04-18T03:41:41.057Z,6.17
2023-04-18T03:42:41.044Z,6.17
2023-04-18T03:43:41.042Z,6.19
2023-04-18T03:44:41.046Z,6.17
2023-04-18T03:45:41.036Z,6.19
2023-04-18T03:46:41.098Z,6.17
2023-04-18T03:47:43.726Z,6.16
2023-04-18T03:48:46.818Z,6.16
2023-04-18T03:50:41.045Z,6.13
2023-04-18T03:51:41.043Z,6.1
2023-04-18T03:52:41.046Z,6.08
2023-04-18T03:53:41.036Z,6.07
2023-04-18T03:54:41.044Z,6.05
2023-04-18T03:55:41.049Z,6.06
2023-04-18T03:56:41.040Z,6.07
2023-04-18T03:57:42.090Z,6.06
2023-04-18T03:58:41.043Z,6.07
2023-04-18T03:59:41.041Z,6.06
2023-04-18T04:00:41.056Z,6.03
2023-04-18T04:01:41.074Z,6.03
2023-04-18T04:02:41.150Z,6.02
2023-04-18T04:03:41.217Z,6.01
2023-04-18T04:04:41.086Z,6.01
2023-04-18T04:05:41.047Z,6.02
2023-04-18T04:06:41.050Z,6.02
2023-04-18T04:07:41.060Z,6.01
2023-04-18T04:08:43.142Z,6
2023-04-18T04:09:45.980Z,6
2023-04-18T04:11:41.055Z,6
2023-04-18T04:12:41.055Z,6.01
2023-04-18T04:13:41.043Z,6.02
2023-04-18T04:14:41.054Z,6.04
2023-04-18T04:15:41.072Z,6.04
2023-04-18T04:16:41.078Z,6.05
2023-04-18T04:17:41.081Z,6.03
2023-04-18T04:18:41.045Z,6.04
2023-04-18T04:19:41.072Z,6.06
2023-04-18T04:20:41.048Z,6.04
2023-04-18T04:21:41.043Z,6.06
2023-04-18T04:22:41.062Z,6.08
2023-04-18T04:23:41.046Z,6.06
2023-04-18T04:24:41.089Z,6.09
2023-04-18T04:25:41.051Z,6.09
2023-04-18T04:26:41.052Z,6.1
2023-04-18T04:27:41.057Z,6.1
2023-04-18T04:28:41.309Z,6.1
2023-04-18T04:29:44.140Z,6.11
2023-04-18T04:30:47.693Z,6.11
2023-04-18T04:32:41.078Z,6.13
2023-04-18T04:33:41.095Z,6.13
2023-04-18T04:34:41.048Z,6.12
2023-04-18T04:35:41.048Z,6.14
2023-04-18T04:36:41.054Z,6.13
2023-04-18T04:37:41.040Z,6.13
2023-04-18T04:38:41.039Z,6.16
2023-04-18T04:39:41.169Z,6.15
2023-04-18T04:40:41.122Z,6.16
2023-04-18T04:41:41.164Z,6.16
2023-04-18T04:42:41.094Z,6.17
2023-04-18T04:43:41.050Z,6.17
2023-04-18T04:44:41.046Z,6.18
2023-04-18T04:45:41.060Z,6.19
2023-04-18T04:46:41.052Z,6.17
2023-04-18T04:47:41.087Z,6.17
2023-04-18T04:48:41.045Z,6.21
2023-04-18T04:49:41.094Z,6.21
2023-04-18T04:50:41.381Z,6.2
2023-04-18T04:51:45.165Z,6.2
2023-04-18T04:52:47.866Z,6.24
2023-04-18T04:54:41.124Z,6.24
2023-04-18T04:55:41.050Z,6.26
2023-04-18T04:56:41.151Z,6.24
2023-04-18T04:57:41.082Z,6.27
2023-04-18T04:58:41.225Z,6.26
2023-04-18T04:59:41.065Z,6.26
2023-04-18T05:00:41.033Z,6.27
2023-04-18T05:01:41.058Z,6.27
2023-04-18T05:02:41.149Z,6.29
2023-04-18T05:03:41.194Z,6.3
2023-04-18T05:04:41.350Z,6.3
2023-04-18T05:05:41.035Z,6.31
2023-04-18T05:06:41.046Z,6.31
2023-04-18T05:07:41.043Z,6.35
2023-04-18T05:08:41.070Z,6.37
2023-04-18T05:09:41.043Z,6.37
2023-04-18T05:10:41.065Z,6.38
2023-04-18T05:11:41.584Z,6.4
2023-04-18T05:12:44.824Z,6.4
2023-04-18T05:13:47.519Z,6.41
2023-04-18T05:15:41.063Z,6.43
2023-04-18T05:16:41.081Z,6.45
2023-04-18T05:17:41.053Z,6.47
2023-04-18T05:18:41.058Z,6.52
2023-04-18T05:19:41.181Z,6.5
2023-04-18T05:20:41.063Z,6.54
2023-04-18T05:21:41.052Z,6.51
2023-04-18T05:22:41.037Z,6.53
2023-04-18T05:23:41.068Z,6.51
2023-04-18T05:24:41.075Z,6.53
2023-04-18T05:25:41.113Z,6.54
2023-04-18T05:26:41.034Z,6.52
2023-04-18T05:27:41.045Z,6.54
2023-04-18T05:28:41.038Z,6.53
2023-04-18T05:29:41.033Z,6.57
2023-04-18T05:30:41.052Z,6.58
2023-04-18T05:31:41.039Z,6.59
2023-04-18T05:32:41.749Z,6.61
2023-04-18T05:33:45.708Z,6.66
2023-04-18T05:34:48.174Z,6.65
2023-04-18T05:36:41.072Z,6.67
2023-04-18T05:37:41.040Z,6.68
2023-04-18T05:38:41.038Z,6.72
2023-04-18T05:39:41.065Z,6.71
2023-04-18T05:40:41.066Z,6.72
2023-04-18T05:41:41.049Z,6.71
2023-04-18T05:42:41.053Z,6.73
2023-04-18T05:43:43.077Z,6.74
2023-04-18T05:44:41.051Z,6.74
2023-04-18T05:45:41.138Z,6.75
2023-04-18T05:46:41.076Z,6.79
2023-04-18T05:47:41.078Z,6.76
2023-04-18T05:48:41.049Z,6.77
2023-04-18T05:49:41.059Z,6.78
2023-04-18T05:50:41.174Z,6.81
2023-04-18T05:51:41.123Z,6.79
2023-04-18T05:52:41.054Z,6.75
2023-04-18T05:53:41.819Z,6.82
2023-04-18T05:54:45.484Z,6.8
2023-04-18T05:55:48.244Z,6.83
2023-04-18T05:57:41.180Z,6.84
2023-04-18T05:58:41.049Z,6.87
2023-04-18T05:59:41.052Z,6.88
2023-04-18T06:00:41.238Z,6.85
2023-04-18T06:01:41.049Z,6.89
2023-04-18T06:02:41.153Z,6.85
2023-04-18T06:03:41.124Z,6.88
2023-04-18T06:04:41.218Z,6.86
2023-04-18T06:05:41.126Z,6.84
2023-04-18T06:06:41.046Z,6.89
2023-04-18T06:07:41.071Z,6.85
2023-04-18T06:08:41.040Z,6.86
2023-04-18T06:09:41.053Z,6.88
2023-04-18T06:10:41.331Z,6.88
2023-04-18T06:11:41.049Z,6.87
2023-04-18T06:12:41.043Z,6.91
2023-04-18T06:13:41.050Z,6.91
2023-04-18T06:14:42.001Z,6.92
2023-04-18T06:15:45.660Z,6.94
2023-04-18T06:16:48.337Z,6.9
2023-04-18T06:18:41.041Z,6.95
2023-04-18T06:19:41.054Z,6.94
2023-04-18T06:20:41.136Z,6.95
2023-04-18T06:21:41.043Z,6.97
2023-04-18T06:22:41.049Z,6.97
2023-04-18T06:23:41.047Z,7.01
2023-04-18T06:24:41.090Z,7.04
2023-04-18T06:25:41.199Z,7.06
2023-04-18T06:26:41.169Z,7.07
2023-04-18T06:27:41.080Z,7.11
2023-04-18T06:28:41.063Z,7.14
2023-04-18T06:29:41.042Z,7.14
2023-04-18T06:30:41.459Z,7.14
2023-04-18T06:31:41.077Z,7.18
2023-04-18T06:32:41.107Z,7.13
2023-04-18T06:33:41.051Z,7.11
2023-04-18T06:34:41.052Z,7.14
2023-04-18T06:35:42.074Z,7.13
2023-04-18T06:36:45.630Z,7.11
2023-04-18T06:37:48.435Z,7.18
2023-04-18T06:39:41.065Z,7.15
2023-04-18T06:40:41.055Z,7.2
2023-04-18T06:41:41.058Z,7.17
2023-04-18T06:42:41.055Z,7.14
2023-04-18T06:43:52.337Z,7.19
2023-04-18T06:44:41.079Z,7.1
2023-04-18T06:45:41.055Z,7.17
2023-04-18T06:46:41.142Z,7.17
2023-04-18T06:47:41.102Z,7.18
2023-04-18T06:48:41.042Z,7.13
2023-04-18T06:49:41.136Z,7.15
2023-04-18T06:50:41.046Z,7.2
2023-04-18T06:51:41.051Z,7.25
2023-04-18T06:52:41.050Z,7.28
2023-04-18T06:53:41.060Z,7.27
2023-04-18T06:54:41.062Z,7.24
2023-04-18T06:55:41.048Z,7.26
2023-04-18T06:56:42.131Z,7.27
2023-04-18T06:57:45.711Z,7.22
2023-04-18T06:58:48.051Z,7.21
2023-04-18T07:00:41.066Z,7.22
2023-04-18T07:01:41.139Z,7.16
2023-04-18T07:02:41.151Z,7.14
2023-04-18T07:03:41.109Z,7.18
2023-04-18T07:04:41.161Z,7.18
2023-04-18T07:05:41.051Z,7.14
2023-04-18T07:06:41.046Z,7.18
2023-04-18T07:07:41.218Z,7.21
2023-04-18T07:08:41.050Z,7.19
2023-04-18T07:09:41.084Z,7.2
2023-04-18T07:10:41.059Z,7.22
2023-04-18T07:11:41.072Z,7.25
2023-04-18T07:12:41.070Z,7.25
2023-04-18T07:13:41.076Z,7.25
2023-04-18T07:14:41.061Z,7.19
2023-04-18T07:15:41.053Z,7.17
2023-04-18T07:16:41.054Z,7.19
2023-04-18T07:17:42.216Z,7.17
2023-04-18T07:18:45.756Z,7.17
2023-04-18T07:19:48.623Z,7.15
2023-04-18T07:21:41.049Z,7.14
2023-04-18T07:22:41.054Z,7.15
2023-04-18T07:23:41.067Z,7.18
2023-04-18T07:24:41.078Z,7.24
2023-04-18T07:25:41.066Z,7.25
2023-04-18T07:26:41.060Z,7.29
2023-04-18T07:27:41.063Z,7.27
2023-04-18T07:28:41.077Z,7.32
2023-04-18T07:29:41.034Z,7.34
2023-04-18T07:30:41.049Z,7.39
2023-04-18T07:31:41.050Z,7.33
2023-04-18T07:32:41.100Z,7.28
2023-04-18T07:33:41.053Z,7.34
2023-04-18T07:34:41.050Z,7.34
2023-04-18T07:35:41.052Z,7.35
2023-04-18T07:36:41.043Z,7.36
2023-04-18T07:37:41.042Z,7.38
2023-04-18T07:38:42.342Z,7.41
2023-04-18T07:39:45.824Z,7.41
2023-04-18T07:40:48.875Z,7.41
2023-04-18T07:42:41.049Z,7.45
2023-04-18T07:43:41.038Z,7.49
2023-04-18T07:44:41.092Z,7.52
2023-04-18T07:45:41.107Z,7.54
2023-04-18T07:46:41.073Z,7.53
2023-04-18T07:47:41.065Z,7.5
2023-04-18T07:48:41.065Z,7.45
2023-04-18T07:49:41.055Z,7.42
2023-04-18T07:50:41.045Z,7.43
2023-04-18T07:51:41.052Z,7.42
2023-04-18T07:52:41.066Z,7.45
2023-04-18T07:53:41.125Z,7.48
2023-04-18T07:54:41.054Z,7.45
2023-04-18T07:55:41.110Z,7.46
2023-04-18T07:56:41.046Z,7.42
2023-04-18T07:57:41.052Z,7.45
2023-04-18T07:58:42.102Z,7.5
2023-04-18T07:59:41.065Z,7.45
2023-04-18T08:00:42.493Z,7.46
2023-04-18T08:01:45.946Z,7.5
2023-04-18T08:02:47.926Z,7.45
2023-04-18T08:03:41.143Z,7.5
2023-04-18T08:04:41.225Z,7.52
2023-04-18T08:05:41.302Z,7.52
2023-04-18T08:06:41.048Z,7.51
2023-04-18T08:07:41.080Z,7.52
2023-04-18T08:08:41.084Z,7.56
2023-04-18T08:09:41.047Z,7.48
2023-04-18T08:10:41.463Z,7.48
2023-04-18T08:11:41.056Z,7.42
2023-04-18T08:12:41.067Z,7.47
2023-04-18T08:13:41.074Z,7.53
2023-04-18T08:14:41.045Z,7.59
2023-04-18T08:15:41.547Z,7.61
2023-04-18T08:16:41.112Z,7.59
2023-04-18T08:17:41.067Z,7.58
2023-04-18T08:18:41.071Z,7.65
2023-04-18T08:19:41.054Z,7.74
2023-04-18T08:20:41.060Z,7.73
2023-04-18T08:21:42.732Z,7.84
2023-04-18T08:23:01.914Z,7.86
2023-04-18T08:23:47.354Z,7.89
2023-04-18T08:24:41.779Z,7.87
2023-04-18T08:25:41.070Z,7.86
2023-04-18T08:26:41.051Z,7.87
2023-04-18T08:27:41.060Z,7.9
2023-04-18T08:28:41.086Z,7.9
2023-04-18T08:29:41.052Z,7.94
2023-04-18T08:30:41.063Z,7.96
2023-04-18T08:31:41.047Z,8.01
2023-04-18T08:32:41.076Z,7.99
2023-04-18T08:33:41.056Z,8.04
2023-04-18T08:34:41.055Z,8.09
2023-04-18T08:35:41.063Z,8.14
2023-04-18T08:36:41.063Z,8.22
2023-04-18T08:37:41.057Z,8.23
2023-04-18T08:38:41.060Z,8.34
2023-04-18T08:39:41.067Z,8.4
2023-04-18T08:40:41.108Z,8.31
2023-04-18T08:41:41.050Z,8.33
2023-04-18T08:42:42.701Z,8.4
2023-04-18T08:43:46.119Z,8.46
2023-04-18T08:44:47.424Z,8.51
2023-04-18T08:45:41.078Z,8.55
2023-04-18T08:46:41.099Z,8.65
2023-04-18T08:47:41.071Z,8.63
2023-04-18T08:48:41.170Z,8.53
2023-04-18T08:49:41.091Z,8.54
2023-04-18T08:50:41.049Z,8.6
2023-04-18T08:51:41.051Z,8.42
2023-04-18T08:52:41.052Z,8.47
2023-04-18T08:53:41.362Z,8.64
2023-04-18T08:54:41.043Z,8.72
2023-04-18T08:55:41.129Z,8.65
2023-04-18T08:56:41.199Z,8.78
2023-04-18T08:57:41.198Z,8.84
2023-04-18T08:58:41.062Z,8.88
2023-04-18T08:59:41.262Z,8.9
2023-04-18T09:00:41.047Z,8.96
2023-04-18T09:01:41.086Z,8.92
2023-04-18T09:02:41.223Z,8.93
2023-04-18T09:03:42.878Z,8.88
2023-04-18T09:04:46.247Z,8.94
2023-04-18T09:05:47.560Z,8.93
2023-04-18T09:06:41.047Z,9.02
2023-04-18T09:07:41.163Z,8.94
2023-04-18T09:08:41.283Z,9.02
2023-04-18T09:09:41.069Z,9.15
2023-04-18T09:10:41.098Z,9.2
2023-04-18T09:11:41.042Z,9.22
2023-04-18T09:12:41.187Z,9.26
2023-04-18T09:13:41.220Z,9.3
2023-04-18T09:14:41.045Z,9.38
2023-04-18T09:15:41.297Z,9.37
2023-04-18T09:16:41.122Z,9.38
2023-04-18T09:17:41.196Z,9.37
2023-04-18T09:18:41.245Z,9.29
2023-04-18T09:19:41.204Z,9.34
2023-04-18T09:20:41.132Z,9.24
2023-04-18T09:21:41.076Z,9.17
2023-04-18T09:22:41.256Z,9.24
2023-04-18T09:23:41.054Z,9.21
2023-04-18T09:24:42.942Z,9.23
2023-04-18T09:25:46.299Z,9.19
2023-04-18T09:26:47.621Z,9.12
2023-04-18T09:27:41.356Z,9.09
2023-04-18T09:28:41.192Z,9.13
2023-04-18T09:29:41.054Z,9.25
2023-04-18T09:30:41.081Z,9.35
2023-04-18T09:31:41.169Z,9.4
2023-04-18T09:32:41.319Z,9.34
2023-04-18T09:33:41.056Z,9.47
2023-04-18T09:34:41.050Z,9.43
2023-04-18T09:35:41.051Z,9.39
2023-04-18T09:36:41.081Z,9.43
2023-04-18T09:37:41.051Z,9.48
2023-04-18T09:38:41.246Z,9.59
2023-04-18T09:39:41.064Z,9.73
2023-04-18T09:40:41.058Z,9.85
2023-04-18T09:41:41.498Z,9.93
2023-04-18T09:42:41.042Z,9.88
2023-04-18T09:43:41.055Z,9.63
2023-04-18T09:44:41.063Z,9.57
2023-04-18T09:45:43.143Z,9.67
2023-04-18T09:46:47.517Z,9.62
2023-04-18T09:47:47.714Z,9.65
2023-04-18T09:48:41.044Z,9.72
2023-04-18T09:49:41.492Z,9.73
2023-04-18T09:50:41.057Z,9.74
2023-04-18T09:51:41.325Z,9.69
2023-04-18T09:52:41.435Z,9.57
2023-04-18T09:53:41.444Z,9.58
2023-04-18T09:54:41.406Z,9.62
2023-04-18T09:55:41.048Z,9.44
2023-04-18T09:56:41.357Z,9.51
2023-04-18T09:57:41.045Z,9.56
2023-04-18T09:58:41.057Z,9.48
2023-04-18T09:59:41.159Z,9.56
2023-04-18T10:00:41.068Z,9.61
2023-04-18T10:01:41.406Z,9.65
2023-04-18T10:02:41.399Z,9.77
2023-04-18T10:03:41.092Z,9.88
2023-04-18T10:04:41.408Z,9.85
2023-04-18T10:05:41.087Z,9.82
2023-04-18T10:06:43.141Z,9.76
2023-04-18T10:07:45.930Z,9.71
2023-04-18T10:08:47.796Z,9.76
2023-04-18T10:09:41.049Z,9.71
2023-04-18T10:10:41.066Z,9.71
2023-04-18T10:11:41.320Z,9.76
2023-04-18T10:12:41.054Z,9.9
2023-04-18T10:13:41.049Z,9.97
2023-04-18T10:14:41.044Z,10.03
2023-04-18T10:15:44.430Z,9.9
2023-04-18T10:16:41.141Z,9.83
2023-04-18T10:17:52.614Z,9.7
2023-04-18T10:18:41.052Z,9.6
2023-04-18T10:19:41.048Z,9.66
2023-04-18T10:20:41.335Z,9.67
2023-04-18T10:21:41.166Z,9.74
2023-04-18T10:22:41.460Z,9.74
2023-04-18T10:23:41.075Z,9.78
2023-04-18T10:24:41.049Z,9.88
2023-04-18T10:25:41.219Z,10.05
2023-04-18T10:26:41.057Z,10.2
2023-04-18T10:27:43.259Z,10.08
2023-04-18T10:28:47.027Z,10.16
2023-04-18T10:29:47.976Z,10.07
2023-04-18T10:30:41.051Z,10.07
2023-04-18T10:31:41.073Z,10.12
2023-04-18T10:32:41.076Z,10.17
2023-04-18T10:33:46.907Z,10.25
2023-04-18T10:34:41.050Z,10.25
2023-04-18T10:35:42.047Z,10.29
2023-04-18T10:36:41.046Z,10.32
2023-04-18T10:37:41.066Z,10.2
2023-04-18T10:38:41.072Z,10.12
2023-04-18T10:39:41.048Z,10.31
2023-04-18T10:40:41.066Z,10.45
2023-04-18T10:41:41.508Z,10.47
2023-04-18T10:42:41.052Z,10.56
2023-04-18T10:43:41.060Z,10.67
2023-04-18T10:44:41.044Z,10.63
2023-04-18T10:45:41.041Z,10.46
2023-04-18T10:46:41.072Z,10.48
2023-04-18T10:47:41.081Z,10.53
2023-04-18T10:48:41.135Z,10.67
2023-04-18T10:49:43.387Z,10.74
2023-04-18T10:50:46.204Z,10.78
2023-04-18T10:52:41.064Z,11.1
2023-04-18T10:53:41.041Z,11.16
2023-04-18T10:54:41.081Z,11.08
2023-04-18T10:55:41.043Z,11.08
2023-04-18T10:56:41.056Z,10.95
2023-04-18T10:57:41.056Z,11
2023-04-18T10:58:41.036Z,10.76
2023-04-18T10:59:41.049Z,10.9
2023-04-18T11:00:41.061Z,10.85
2023-04-18T11:01:41.076Z,10.97
2023-04-18T11:02:41.142Z,10.93
2023-04-18T11:03:41.107Z,11.01
2023-04-18T11:04:41.047Z,10.92
2023-04-18T11:05:41.045Z,10.7
2023-04-18T11:06:41.042Z,10.7
2023-04-18T11:07:41.056Z,10.65
2023-04-18T11:08:41.043Z,10.61
2023-04-18T11:09:41.055Z,10.67
2023-04-18T11:10:43.838Z,10.61
2023-04-18T11:11:46.433Z,10.7
2023-04-18T11:13:41.045Z,10.56
2023-04-18T11:14:41.241Z,10.65
2023-04-18T11:15:41.056Z,10.67
2023-04-18T11:16:41.110Z,10.86
2023-04-18T11:17:41.111Z,10.82
2023-04-18T11:18:41.037Z,11.01
2023-04-18T11:19:41.067Z,11.18
2023-04-18T11:20:41.052Z,11.31
2023-04-18T11:21:41.050Z,11.42
2023-04-18T11:22:41.056Z,11.56
2023-04-18T11:23:41.054Z,11.57
2023-04-18T11:24:41.062Z,11.81
2023-04-18T11:25:41.061Z,11.95
2023-04-18T11:26:41.056Z,12.23
2023-04-18T11:27:41.083Z,12.41
2023-04-18T11:28:41.059Z,12.64
2023-04-18T11:29:41.050Z,12.82
2023-04-18T11:30:41.260Z,12.73
2023-04-18T11:31:43.487Z,13.09
2023-04-18T11:32:46.448Z,13.19
2023-04-18T11:34:41.067Z,13.49
2023-04-18T11:35:41.065Z,13.36
2023-04-18T11:36:41.050Z,13.31
2023-04-18T11:37:41.080Z,13.09
2023-04-18T11:38:41.069Z,13.15
2023-04-18T11:39:41.054Z,12.8
2023-04-18T11:40:41.069Z,12.53
2023-04-18T11:41:41.067Z,12.36
2023-04-18T11:42:41.071Z,12.56
2023-04-18T11:43:41.048Z,12.61
2023-04-18T11:44:41.052Z,12.54
2023-04-18T11:45:41.073Z,12.49
2023-04-18T11:46:41.053Z,12.69
2023-04-18T11:47:41.102Z,12.94
2023-04-18T11:48:41.046Z,13.2
2023-04-18T11:49:41.033Z,13.48
2023-04-18T11:50:41.056Z,13.22
2023-04-18T11:51:41.830Z,12.97
2023-04-18T11:52:43.722Z,12.72
2023-04-18T11:53:46.432Z,12.47
2023-04-18T11:55:41.049Z,12.6
2023-04-18T11:56:41.051Z,12.33
2023-04-18T11:57:41.066Z,12.03
2023-04-18T11:58:41.064Z,12.01
2023-04-18T11:59:41.115Z,11.84
2023-04-18T12:00:41.033Z,11.96
2023-04-18T12:01:41.035Z,12.09
2023-04-18T12:02:41.124Z,12.05
2023-04-18T12:03:41.155Z,12.25
2023-04-18T12:04:41.278Z,12.28
2023-04-18T12:05:41.187Z,12.25
2023-04-18T12:06:41.048Z,12.12
2023-04-18T12:07:41.443Z,12.27
2023-04-18T12:08:41.045Z,12.18
2023-04-18T12:09:41.072Z,11.98
2023-04-18T12:10:41.044Z,12.01
2023-04-18T12:11:41.062Z,11.97
2023-04-18T12:12:41.432Z,12.03
2023-04-18T12:13:43.544Z,11.84
2023-04-18T12:14:46.606Z,11.86
2023-04-18T12:16:41.049Z,11.88
2023-04-18T12:17:41.044Z,12.01
2023-04-18T12:18:41.050Z,12.09
2023-04-18T12:19:41.065Z,12.1
2023-04-18T12:20:41.191Z,12.28
2023-04-18T12:21:41.056Z,12.48
2023-04-18T12:22:41.053Z,12.78
2023-04-18T12:23:41.046Z,12.74
2023-04-18T12:24:41.048Z,12.82
2023-04-18T12:25:41.044Z,13.02
2023-04-18T12:26:41.050Z,12.99
2023-04-18T12:27:41.046Z,13.05
2023-04-18T12:28:41.067Z,13.09
2023-04-18T12:29:41.050Z,12.78
2023-04-18T12:30:41.047Z,12.53
2023-04-18T12:31:41.072Z,12.39
2023-04-18T12:32:41.116Z,12.57
2023-04-18T12:33:41.562Z,12.65
2023-04-18T12:34:43.850Z,12.7
2023-04-18T12:35:47.822Z,12.73
2023-04-18T12:37:41.047Z,12.77
2023-04-18T12:38:41.082Z,12.84
2023-04-18T12:39:41.050Z,12.8
2023-04-18T12:40:41.058Z,12.81
2023-04-18T12:41:41.185Z,12.75
2023-04-18T12:42:41.044Z,12.83
2023-04-18T12:43:41.063Z,12.9
2023-04-18T12:44:41.076Z,12.9
2023-04-18T12:45:41.067Z,12.98
2023-04-18T12:46:41.082Z,13.03
2023-04-18T12:47:41.069Z,12.87
2023-04-18T12:48:41.099Z,12.88
2023-04-18T12:49:41.046Z,12.81
2023-04-18T12:50:41.048Z,12.77
2023-04-18T12:51:41.050Z,13
2023-04-18T12:52:41.040Z,12.9
2023-04-18T12:53:41.068Z,12.97
2023-04-18T12:54:41.043Z,13.02
2023-04-18T12:55:43.728Z,13.12
2023-04-18T12:56:46.855Z,13.26
2023-04-18T12:58:41.085Z,13.25
2023-04-18T12:59:41.038Z,13.23
2023-04-18T13:00:41.066Z,13.24
2023-04-18T13:01:41.228Z,13.28
2023-04-18T13:02:41.237Z,13.12
2023-04-18T13:03:41.156Z,13.26
2023-04-18T13:04:41.301Z,13.58
2023-04-18T13:05:41.135Z,13.75
2023-04-18T13:06:41.075Z,14.09
2023-04-18T13:07:41.047Z,14.24
2023-04-18T13:08:41.062Z,14.19
2023-04-18T13:09:41.050Z,14.19
2023-04-18T13:10:41.049Z,14.45
2023-04-18T13:11:41.047Z,14.29
2023-04-18T13:12:41.047Z,13.92
2023-04-18T13:13:41.044Z,14.01
2023-04-18T13:14:41.048Z,14.04
2023-04-18T13:15:41.177Z,14.01
2023-04-18T13:16:44.909Z,13.99
2023-04-18T13:17:46.949Z,13.51
2023-04-18T13:19:41.054Z,13.57
2023-04-18T13:20:41.427Z,13.49
2023-04-18T13:21:41.052Z,13.41
2023-04-18T13:22:41.050Z,13.45
2023-04-18T13:23:41.047Z,13.49
2023-04-18T13:24:41.067Z,13.45
2023-04-18T13:25:41.047Z,13.39
2023-04-18T13:26:41.130Z,13.16
2023-04-18T13:27:41.702Z,13.18
2023-04-18T13:28:41.060Z,13.14
2023-04-18T13:29:41.071Z,12.99
2023-04-18T13:30:41.064Z,13.18
2023-04-18T13:31:41.153Z,13.15
2023-04-18T13:32:41.108Z,13.17
2023-04-18T13:33:41.064Z,13.19
2023-04-18T13:34:41.183Z,13.2
2023-04-18T13:35:41.065Z,13.12
2023-04-18T13:36:41.277Z,13.24
2023-04-18T13:37:44.037Z,13.45
2023-04-18T13:38:47.151Z,13.86
2023-04-18T13:40:41.077Z,14.41
2023-04-18T13:41:41.047Z,14.57